RJBB/KIX METAR and TAF weather

Enter ICAO airport designator
Station Type Date Time Source
RJBB METAR 2022/06/25 22:30 UTC NOAA

RJBB 252230Z 14003KT 110V180 9999 VCSH FEW025 SCT060 BKN120 24/22 Q1015 NOSIG


Station Type Date Time Source
RJBB Decoded METAR 2022/06/25 22:30 UTC NOAA

Kansai International Airport, Japan (RJBB) 34-25N 135-15E 8M
Jun 25, 2022 - 06:30 PM EDT / 2022.06.25 2230 UTC
Wind: from the SE (140 degrees) at 3 MPH (3 KT) (direction variable):0
Visibility: greater than 7 mile(s):0
Sky conditions: mostly cloudy
Weather: showers in the vicinity
Temperature: 75 F (24 C)
Dew Point: 71 F (22 C)
Relative Humidity: 88%
Pressure (altimeter): 29.97 in. Hg (1015 hPa)
ob: RJBB 252230Z 14003KT 110V180 9999 VCSH FEW025 SCT060 BKN120 24/22 Q1015 NOSIG
cycle: 22

Station Type Date Time Source
RJBB TAF 2022/06/25 21:43 UTC NOAA

TAF
AMD RJBB 252140Z 2521/2700 06006KT 9999 FEW020 SCT050
BECMG 2522/2600 22010KT

Example: see airport list